This is the latest recevied weather packets stored in our database for station/object OK2JF-6. If no packets are shown the sender has not sent any weather packets the latest 10 day(s).
| Time | Temp. | Humidity | Pressure | Rain* | Wind** | Luminosity | Snow |
|---|---|---|---|---|---|---|---|
| 1777270923 | 8.33° C | 58% | 1094.9 hPa | 0 mm | - | 142 W/m² | - |
| 1777270863 | 8.33° C | 60% | 1094.8 hPa | 0 mm | - | 155 W/m² | - |
| 1777270803 | 8.33° C | 62% | 1094.9 hPa | 0 mm | - | 159 W/m² | - |
| 1777269783 | 5.56° C | 69% | 1094.9 hPa | 0 mm | - | 145 W/m² | - |
| 1777269183 | 4.44° C | 71% | 1094.9 hPa | 0 mm | - | 136 W/m² | - |
| 1777268883 | 4.44° C | 72% | 1094.8 hPa | 0 mm | - | 95 W/m² | - |
| 1777268523 | 4.44° C | 72% | 1094.8 hPa | 0 mm | - | 78 W/m² | - |
| 1777268404 | 3.89° C | 73% | 1094.8 hPa | 0 mm | - | 90 W/m² | - |
| 1777267939 | 3.89° C | 73% | 1094.7 hPa | 0 mm | - | 78 W/m² | - |
| 1777267208 | 3.33° C | 77% | 1094.7 hPa | 0 mm | - | 61 W/m² | - |
| 1777266963 | 2.78° C | 76% | 1094.8 hPa | 0 mm | - | 66 W/m² | - |
| 1777266784 | 2.78° C | 78% | 1094.7 hPa | 0 mm | - | 82 W/m² | - |
| 1777266723 | 2.22° C | 77% | 1094.8 hPa | 0 mm | - | 93 W/m² | - |
| 1777266619 | 2.22° C | 77% | 1094.7 hPa | 0 mm | - | 90 W/m² | - |
| 1777266363 | 1.67° C | 80% | 1094.6 hPa | 0 mm | - | 93 W/m² | - |
| 1777265644 | 1.11° C | 82% | 1094.9 hPa | 0 mm | - | 52 W/m² | - |
| 1777265463 | 1.11° C | 83% | 1094.9 hPa | 0 mm | - | 47 W/m² | - |
| 1777265403 | 1.11° C | 83% | 1094.7 hPa | 0 mm | - | 46 W/m² | - |
| 1777265343 | 1.11° C | 83% | 1094.8 hPa | 0 mm | - | 47 W/m² | - |
| 1777265163 | 0.56° C | 84% | 1094.8 hPa | 0 mm | - | 52 W/m² | - |
| 1777264744 | 0° C | 85% | 1094.7 hPa | 0 mm | - | 39 W/m² | - |
| 1777264443 | -0.56° C | 86% | 1094.7 hPa | 0 mm | - | 31 W/m² | - |
| 1777263543 | -0.56° C | 86% | 1094.5 hPa | 0 mm | - | 12 W/m² | - |
| 1777262584 | -1.11° C | 87% | 1094.4 hPa | 0 mm | - | 7 W/m² | - |
| 1777262187 | -1.11° C | 88% | 1094.5 hPa | 0 mm | - | 4 W/m² | - |
* Rain latest hour (hover to see other rain measurements)
** Current wind speed in m/s (hover to see current wind gust speed)